sensor_id;sensor_type;location;lat;lon;timestamp;P1;durP1;ratioP1;P2;durP2;ratioP2
6376;SDS011;3221;48.858;10.128;2023-04-24T00:01:09;8.40;;;2.03;;
6376;SDS011;3221;48.858;10.128;2023-04-24T00:03:36;5.90;;;2.10;;
6376;SDS011;3221;48.858;10.128;2023-04-24T00:06:05;5.50;;;1.80;;
6376;SDS011;3221;48.858;10.128;2023-04-24T00:08:34;6.50;;;1.70;;
6376;SDS011;3221;48.858;10.128;2023-04-24T00:11:02;6.30;;;1.40;;
6376;SDS011;3221;48.858;10.128;2023-04-24T00:13:29;4.03;;;1.70;;
6376;SDS011;3221;48.858;10.128;2023-04-24T00:15:56;7.10;;;2.20;;
6376;SDS011;3221;48.858;10.128;2023-04-24T00:18:23;11.77;;;2.37;;
6376;SDS011;3221;48.858;10.128;2023-04-24T00:20:50;9.97;;;2.63;;
6376;SDS011;3221;48.858;10.128;2023-04-24T00:23:16;10.40;;;2.33;;
6376;SDS011;3221;48.858;10.128;2023-04-24T00:25:43;5.23;;;1.70;;
6376;SDS011;3221;48.858;10.128;2023-04-24T00:28:10;9.37;;;1.90;;
6376;SDS011;3221;48.858;10.128;2023-04-24T00:30:37;7.27;;;1.40;;
6376;SDS011;3221;48.858;10.128;2023-04-24T00:33:04;6.83;;;1.90;;
6376;SDS011;3221;48.858;10.128;2023-04-24T00:35:31;6.70;;;1.80;;
6376;SDS011;3221;48.858;10.128;2023-04-24T00:37:58;8.17;;;1.70;;
6376;SDS011;3221;48.858;10.128;2023-04-24T00:40:25;9.03;;;1.70;;
6376;SDS011;3221;48.858;10.128;2023-04-24T00:42:53;7.57;;;1.53;;
6376;SDS011;3221;48.858;10.128;2023-04-24T00:45:20;4.43;;;1.50;;
6376;SDS011;3221;48.858;10.128;2023-04-24T00:47:47;8.17;;;1.77;;
6376;SDS011;3221;48.858;10.128;2023-04-24T00:50:15;3.00;;;1.47;;
6376;SDS011;3221;48.858;10.128;2023-04-24T00:52:42;4.73;;;1.40;;
6376;SDS011;3221;48.858;10.128;2023-04-24T00:55:10;5.20;;;1.40;;
6376;SDS011;3221;48.858;10.128;2023-04-24T00:57:37;12.60;;;1.97;;
6376;SDS011;3221;48.858;10.128;2023-04-24T01:00:05;2.00;;;1.13;;
6376;SDS011;3221;48.858;10.128;2023-04-24T01:02:37;2.80;;;1.17;;
6376;SDS011;3221;48.858;10.128;2023-04-24T01:05:07;3.73;;;1.43;;
6376;SDS011;3221;48.858;10.128;2023-04-24T01:07:34;9.07;;;1.80;;
6376;SDS011;3221;48.858;10.128;2023-04-24T01:10:02;2.67;;;1.60;;
6376;SDS011;3221;48.858;10.128;2023-04-24T01:12:30;4.57;;;1.73;;
6376;SDS011;3221;48.858;10.128;2023-04-24T01:14:57;2.20;;;1.60;;
6376;SDS011;3221;48.858;10.128;2023-04-24T01:17:24;3.30;;;1.70;;
6376;SDS011;3221;48.858;10.128;2023-04-24T01:19:53;7.83;;;2.20;;
6376;SDS011;3221;48.858;10.128;2023-04-24T01:22:20;7.03;;;2.10;;
6376;SDS011;3221;48.858;10.128;2023-04-24T01:24:47;4.77;;;1.60;;
6376;SDS011;3221;48.858;10.128;2023-04-24T01:27:14;3.20;;;1.60;;
6376;SDS011;3221;48.858;10.128;2023-04-24T01:29:44;4.77;;;1.73;;
6376;SDS011;3221;48.858;10.128;2023-04-24T01:32:11;7.00;;;1.80;;
6376;SDS011;3221;48.858;10.128;2023-04-24T01:34:39;4.83;;;1.80;;
6376;SDS011;3221;48.858;10.128;2023-04-24T01:37:06;7.97;;;1.50;;
6376;SDS011;3221;48.858;10.128;2023-04-24T01:39:34;9.80;;;2.70;;
6376;SDS011;3221;48.858;10.128;2023-04-24T01:42:01;12.10;;;3.13;;
6376;SDS011;3221;48.858;10.128;2023-04-24T01:44:31;5.90;;;2.63;;
6376;SDS011;3221;48.858;10.128;2023-04-24T01:47:00;6.90;;;2.50;;
6376;SDS011;3221;48.858;10.128;2023-04-24T01:49:29;9.27;;;2.80;;
6376;SDS011;3221;48.858;10.128;2023-04-24T01:51:56;5.40;;;2.30;;
6376;SDS011;3221;48.858;10.128;2023-04-24T01:54:22;3.70;;;2.30;;
6376;SDS011;3221;48.858;10.128;2023-04-24T01:56:49;6.50;;;2.20;;
6376;SDS011;3221;48.858;10.128;2023-04-24T01:59:16;7.03;;;1.60;;
6376;SDS011;3221;48.858;10.128;2023-04-24T02:01:44;10.47;;;2.30;;
6376;SDS011;3221;48.858;10.128;2023-04-24T02:04:11;5.87;;;1.50;;
6376;SDS011;3221;48.858;10.128;2023-04-24T02:06:38;3.17;;;1.30;;
6376;SDS011;3221;48.858;10.128;2023-04-24T02:09:05;12.87;;;1.67;;
6376;SDS011;3221;48.858;10.128;2023-04-24T02:11:33;7.17;;;1.73;;
6376;SDS011;3221;48.858;10.128;2023-04-24T02:14:00;3.63;;;1.20;;
6376;SDS011;3221;48.858;10.128;2023-04-24T02:16:27;7.83;;;2.10;;
6376;SDS011;3221;48.858;10.128;2023-04-24T02:18:58;3.13;;;1.23;;
6376;SDS011;3221;48.858;10.128;2023-04-24T02:21:25;7.83;;;1.30;;
6376;SDS011;3221;48.858;10.128;2023-04-24T02:23:53;5.43;;;1.47;;
6376;SDS011;3221;48.858;10.128;2023-04-24T02:26:20;2.73;;;1.13;;
6376;SDS011;3221;48.858;10.128;2023-04-24T02:28:51;5.97;;;1.30;;
6376;SDS011;3221;48.858;10.128;2023-04-24T02:31:19;7.00;;;1.50;;
6376;SDS011;3221;48.858;10.128;2023-04-24T02:33:47;6.93;;;1.90;;
6376;SDS011;3221;48.858;10.128;2023-04-24T02:36:13;8.07;;;1.70;;
6376;SDS011;3221;48.858;10.128;2023-04-24T02:38:40;4.30;;;1.50;;
6376;SDS011;3221;48.858;10.128;2023-04-24T02:41:07;3.57;;;1.30;;
6376;SDS011;3221;48.858;10.128;2023-04-24T02:43:34;1.33;;;1.20;;
6376;SDS011;3221;48.858;10.128;2023-04-24T02:46:01;1.40;;;1.23;;
6376;SDS011;3221;48.858;10.128;2023-04-24T02:48:29;2.63;;;1.30;;
6376;SDS011;3221;48.858;10.128;2023-04-24T02:50:56;6.67;;;1.80;;
6376;SDS011;3221;48.858;10.128;2023-04-24T02:53:24;4.17;;;1.67;;
6376;SDS011;3221;48.858;10.128;2023-04-24T02:55:51;2.13;;;1.30;;
6376;SDS011;3221;48.858;10.128;2023-04-24T02:58:18;3.50;;;1.27;;
6376;SDS011;3221;48.858;10.128;2023-04-24T03:00:46;4.67;;;1.40;;
6376;SDS011;3221;48.858;10.128;2023-04-24T03:03:13;2.37;;;1.30;;
6376;SDS011;3221;48.858;10.128;2023-04-24T03:05:41;1.20;;;1.10;;
6376;SDS011;3221;48.858;10.128;2023-04-24T03:08:08;1.87;;;1.30;;
6376;SDS011;3221;48.858;10.128;2023-04-24T03:10:36;2.87;;;1.30;;
6376;SDS011;3221;48.858;10.128;2023-04-24T03:13:03;3.97;;;1.50;;
6376;SDS011;3221;48.858;10.128;2023-04-24T03:15:30;2.30;;;1.50;;
6376;SDS011;3221;48.858;10.128;2023-04-24T03:17:57;1.53;;;1.20;;
6376;SDS011;3221;48.858;10.128;2023-04-24T03:20:25;1.60;;;1.17;;
6376;SDS011;3221;48.858;10.128;2023-04-24T03:22:53;2.10;;;1.40;;
6376;SDS011;3221;48.858;10.128;2023-04-24T03:25:20;2.20;;;1.57;;
6376;SDS011;3221;48.858;10.128;2023-04-24T03:27:47;3.57;;;1.40;;
6376;SDS011;3221;48.858;10.128;2023-04-24T03:30:47;3.07;;;1.30;;
6376;SDS011;3221;48.858;10.128;2023-04-24T03:33:15;2.97;;;1.43;;
6376;SDS011;3221;48.858;10.128;2023-04-24T03:35:52;4.10;;;1.53;;
6376;SDS011;3221;48.858;10.128;2023-04-24T03:38:20;1.40;;;1.30;;
6376;SDS011;3221;48.858;10.128;2023-04-24T03:40:55;2.27;;;1.57;;
6376;SDS011;3221;48.858;10.128;2023-04-24T03:43:43;3.17;;;1.43;;
6376;SDS011;3221;48.858;10.128;2023-04-24T03:46:10;2.03;;;1.60;;
6376;SDS011;3221;48.858;10.128;2023-04-24T03:48:42;3.30;;;1.80;;
6376;SDS011;3221;48.858;10.128;2023-04-24T03:51:10;2.20;;;1.50;;
6376;SDS011;3221;48.858;10.128;2023-04-24T03:53:40;4.67;;;1.80;;
6376;SDS011;3221;48.858;10.128;2023-04-24T03:56:08;4.03;;;1.50;;
6376;SDS011;3221;48.858;10.128;2023-04-24T03:58:36;2.03;;;1.50;;
6376;SDS011;3221;48.858;10.128;2023-04-24T04:01:03;1.50;;;1.40;;
6376;SDS011;3221;48.858;10.128;2023-04-24T04:03:37;1.93;;;1.53;;
6376;SDS011;3221;48.858;10.128;2023-04-24T04:06:05;1.73;;;1.40;;
6376;SDS011;3221;48.858;10.128;2023-04-24T04:08:32;2.00;;;1.40;;
6376;SDS011;3221;48.858;10.128;2023-04-24T04:11:00;2.40;;;1.50;;
6376;SDS011;3221;48.858;10.128;2023-04-24T04:13:30;1.70;;;1.40;;
6376;SDS011;3221;48.858;10.128;2023-04-24T04:15:57;4.93;;;1.37;;
6376;SDS011;3221;48.858;10.128;2023-04-24T04:18:24;2.47;;;1.50;;
6376;SDS011;3221;48.858;10.128;2023-04-24T04:20:51;2.43;;;1.50;;
6376;SDS011;3221;48.858;10.128;2023-04-24T04:23:18;1.53;;;1.30;;
6376;SDS011;3221;48.858;10.128;2023-04-24T04:26:02;1.57;;;1.37;;
6376;SDS011;3221;48.858;10.128;2023-04-24T04:28:44;4.30;;;1.80;;
6376;SDS011;3221;48.858;10.128;2023-04-24T04:31:11;7.50;;;2.43;;
6376;SDS011;3221;48.858;10.128;2023-04-24T04:33:39;11.37;;;3.30;;
6376;SDS011;3221;48.858;10.128;2023-04-24T04:36:07;5.63;;;3.00;;
6376;SDS011;3221;48.858;10.128;2023-04-24T04:38:38;3.80;;;2.50;;
6376;SDS011;3221;48.858;10.128;2023-04-24T04:41:19;3.13;;;2.50;;
6376;SDS011;3221;48.858;10.128;2023-04-24T04:43:46;3.37;;;2.07;;
6376;SDS011;3221;48.858;10.128;2023-04-24T04:46:14;2.47;;;1.93;;
6376;SDS011;3221;48.858;10.128;2023-04-24T04:48:48;2.60;;;1.73;;
6376;SDS011;3221;48.858;10.128;2023-04-24T04:51:15;3.13;;;1.70;;
6376;SDS011;3221;48.858;10.128;2023-04-24T04:53:43;1.70;;;1.53;;
6376;SDS011;3221;48.858;10.128;2023-04-24T04:56:10;1.77;;;1.50;;
6376;SDS011;3221;48.858;10.128;2023-04-24T04:58:43;1.73;;;1.50;;
6376;SDS011;3221;48.858;10.128;2023-04-24T05:01:14;2.40;;;1.57;;
6376;SDS011;3221;48.858;10.128;2023-04-24T05:03:44;1.50;;;1.40;;
6376;SDS011;3221;48.858;10.128;2023-04-24T05:06:15;2.13;;;1.40;;
6376;SDS011;3221;48.858;10.128;2023-04-24T05:08:42;1.97;;;1.30;;
6376;SDS011;3221;48.858;10.128;2023-04-24T05:11:30;1.47;;;1.37;;
6376;SDS011;3221;48.858;10.128;2023-04-24T05:13:59;1.40;;;1.30;;
6376;SDS011;3221;48.858;10.128;2023-04-24T05:16:37;1.87;;;1.30;;
6376;SDS011;3221;48.858;10.128;2023-04-24T05:19:05;2.47;;;1.60;;
6376;SDS011;3221;48.858;10.128;2023-04-24T05:21:37;2.90;;;1.90;;
6376;SDS011;3221;48.858;10.128;2023-04-24T05:24:06;2.03;;;1.43;;
6376;SDS011;3221;48.858;10.128;2023-04-24T05:27:00;1.67;;;1.57;;
6376;SDS011;3221;48.858;10.128;2023-04-24T05:29:33;4.20;;;1.53;;
6376;SDS011;3221;48.858;10.128;2023-04-24T05:32:02;2.07;;;1.60;;
6376;SDS011;3221;48.858;10.128;2023-04-24T05:34:30;4.53;;;1.70;;
6376;SDS011;3221;48.858;10.128;2023-04-24T05:36:57;3.87;;;1.90;;
6376;SDS011;3221;48.858;10.128;2023-04-24T05:39:25;3.97;;;2.37;;
6376;SDS011;3221;48.858;10.128;2023-04-24T05:41:53;5.97;;;2.53;;
6376;SDS011;3221;48.858;10.128;2023-04-24T05:44:20;3.43;;;2.60;;
6376;SDS011;3221;48.858;10.128;2023-04-24T05:46:47;3.57;;;2.23;;
6376;SDS011;3221;48.858;10.128;2023-04-24T05:49:15;2.53;;;1.90;;
6376;SDS011;3221;48.858;10.128;2023-04-24T05:51:44;3.47;;;1.57;;
6376;SDS011;3221;48.858;10.128;2023-04-24T05:54:11;4.43;;;1.70;;
6376;SDS011;3221;48.858;10.128;2023-04-24T05:56:39;2.33;;;1.63;;
6376;SDS011;3221;48.858;10.128;2023-04-24T05:59:10;3.33;;;2.80;;
6376;SDS011;3221;48.858;10.128;2023-04-24T06:01:37;3.53;;;3.23;;
6376;SDS011;3221;48.858;10.128;2023-04-24T06:04:10;4.27;;;3.13;;
6376;SDS011;3221;48.858;10.128;2023-04-24T06:06:40;3.03;;;2.33;;
6376;SDS011;3221;48.858;10.128;2023-04-24T06:09:08;2.23;;;1.87;;
6376;SDS011;3221;48.858;10.128;2023-04-24T06:11:34;3.13;;;2.20;;
6376;SDS011;3221;48.858;10.128;2023-04-24T06:14:02;3.93;;;2.97;;
6376;SDS011;3221;48.858;10.128;2023-04-24T06:16:49;3.97;;;2.43;;
6376;SDS011;3221;48.858;10.128;2023-04-24T06:19:30;4.00;;;2.20;;
6376;SDS011;3221;48.858;10.128;2023-04-24T06:21:57;2.53;;;2.33;;
6376;SDS011;3221;48.858;10.128;2023-04-24T06:24:27;2.93;;;2.50;;
6376;SDS011;3221;48.858;10.128;2023-04-24T06:26:54;3.53;;;2.70;;
6376;SDS011;3221;48.858;10.128;2023-04-24T06:29:22;2.50;;;2.27;;
6376;SDS011;3221;48.858;10.128;2023-04-24T06:31:49;2.30;;;2.10;;
6376;SDS011;3221;48.858;10.128;2023-04-24T06:34:16;2.10;;;1.90;;
6376;SDS011;3221;48.858;10.128;2023-04-24T06:36:43;2.67;;;1.87;;
6376;SDS011;3221;48.858;10.128;2023-04-24T06:39:11;2.60;;;2.23;;
6376;SDS011;3221;48.858;10.128;2023-04-24T06:41:38;2.50;;;2.30;;
6376;SDS011;3221;48.858;10.128;2023-04-24T06:44:08;2.37;;;1.90;;
6376;SDS011;3221;48.858;10.128;2023-04-24T06:46:35;3.20;;;2.30;;
6376;SDS011;3221;48.858;10.128;2023-04-24T06:49:03;2.17;;;1.97;;
6376;SDS011;3221;48.858;10.128;2023-04-24T06:51:30;3.13;;;2.40;;
6376;SDS011;3221;48.858;10.128;2023-04-24T06:53:59;2.30;;;2.10;;
6376;SDS011;3221;48.858;10.128;2023-04-24T06:56:26;3.57;;;2.33;;
6376;SDS011;3221;48.858;10.128;2023-04-24T06:58:52;3.33;;;2.63;;
6376;SDS011;3221;48.858;10.128;2023-04-24T07:01:19;4.10;;;2.70;;
6376;SDS011;3221;48.858;10.128;2023-04-24T07:03:46;2.40;;;2.20;;
6376;SDS011;3221;48.858;10.128;2023-04-24T07:06:13;2.43;;;2.20;;
6376;SDS011;3221;48.858;10.128;2023-04-24T07:08:42;2.90;;;2.60;;
6376;SDS011;3221;48.858;10.128;2023-04-24T07:11:09;3.60;;;2.50;;
6376;SDS011;3221;48.858;10.128;2023-04-24T07:13:36;3.47;;;2.80;;
6376;SDS011;3221;48.858;10.128;2023-04-24T07:16:08;2.77;;;2.37;;
6376;SDS011;3221;48.858;10.128;2023-04-24T07:18:36;2.90;;;2.60;;
6376;SDS011;3221;48.858;10.128;2023-04-24T07:21:03;3.20;;;2.90;;
6376;SDS011;3221;48.858;10.128;2023-04-24T07:23:30;2.77;;;2.57;;
6376;SDS011;3221;48.858;10.128;2023-04-24T07:25:57;2.70;;;2.50;;
6376;SDS011;3221;48.858;10.128;2023-04-24T07:28:24;3.60;;;2.67;;
6376;SDS011;3221;48.858;10.128;2023-04-24T07:30:52;3.23;;;2.90;;
6376;SDS011;3221;48.858;10.128;2023-04-24T07:33:20;3.50;;;2.80;;
6376;SDS011;3221;48.858;10.128;2023-04-24T07:35:47;2.50;;;2.30;;
6376;SDS011;3221;48.858;10.128;2023-04-24T07:38:14;4.13;;;2.60;;
6376;SDS011;3221;48.858;10.128;2023-04-24T07:40:41;3.83;;;2.60;;
6376;SDS011;3221;48.858;10.128;2023-04-24T07:43:13;3.30;;;2.97;;
6376;SDS011;3221;48.858;10.128;2023-04-24T07:45:40;3.07;;;2.87;;
6376;SDS011;3221;48.858;10.128;2023-04-24T07:48:08;4.23;;;3.30;;
6376;SDS011;3221;48.858;10.128;2023-04-24T07:50:35;3.80;;;3.40;;
6376;SDS011;3221;48.858;10.128;2023-04-24T07:53:03;3.70;;;3.20;;
6376;SDS011;3221;48.858;10.128;2023-04-24T07:55:29;3.67;;;3.30;;
6376;SDS011;3221;48.858;10.128;2023-04-24T07:57:56;4.80;;;2.93;;
6376;SDS011;3221;48.858;10.128;2023-04-24T08:00:23;3.50;;;3.20;;
6376;SDS011;3221;48.858;10.128;2023-04-24T08:02:50;3.67;;;3.23;;
6376;SDS011;3221;48.858;10.128;2023-04-24T08:05:17;3.97;;;3.10;;
6376;SDS011;3221;48.858;10.128;2023-04-24T08:07:45;3.87;;;3.20;;
6376;SDS011;3221;48.858;10.128;2023-04-24T08:10:14;3.63;;;3.20;;
6376;SDS011;3221;48.858;10.128;2023-04-24T08:12:41;4.20;;;3.37;;
6376;SDS011;3221;48.858;10.128;2023-04-24T08:15:08;4.00;;;3.60;;
6376;SDS011;3221;48.858;10.128;2023-04-24T08:17:35;3.83;;;3.10;;
6376;SDS011;3221;48.858;10.128;2023-04-24T08:20:03;5.10;;;3.60;;
6376;SDS011;3221;48.858;10.128;2023-04-24T08:22:31;3.90;;;2.93;;
6376;SDS011;3221;48.858;10.128;2023-04-24T08:24:59;4.07;;;2.97;;
6376;SDS011;3221;48.858;10.128;2023-04-24T08:27:27;3.10;;;2.80;;
6376;SDS011;3221;48.858;10.128;2023-04-24T08:29:54;3.10;;;2.80;;
6376;SDS011;3221;48.858;10.128;2023-04-24T08:32:21;3.80;;;3.40;;
6376;SDS011;3221;48.858;10.128;2023-04-24T08:34:48;3.37;;;3.00;;
6376;SDS011;3221;48.858;10.128;2023-04-24T08:37:15;4.10;;;3.37;;
6376;SDS011;3221;48.858;10.128;2023-04-24T08:39:42;7.07;;;4.43;;
6376;SDS011;3221;48.858;10.128;2023-04-24T08:42:09;15.03;;;7.93;;
6376;SDS011;3221;48.858;10.128;2023-04-24T08:44:39;15.17;;;7.53;;
6376;SDS011;3221;48.858;10.128;2023-04-24T08:47:06;16.10;;;7.83;;
6376;SDS011;3221;48.858;10.128;2023-04-24T08:49:35;12.87;;;7.67;;
6376;SDS011;3221;48.858;10.128;2023-04-24T08:52:02;13.20;;;8.40;;
6376;SDS011;3221;48.858;10.128;2023-04-24T08:54:31;5.27;;;4.17;;
6376;SDS011;3221;48.858;10.128;2023-04-24T08:57:00;6.00;;;3.50;;
6376;SDS011;3221;48.858;10.128;2023-04-24T08:59:30;5.53;;;3.90;;
6376;SDS011;3221;48.858;10.128;2023-04-24T09:01:59;3.67;;;3.33;;
6376;SDS011;3221;48.858;10.128;2023-04-24T09:04:27;4.10;;;3.10;;
6376;SDS011;3221;48.858;10.128;2023-04-24T09:06:57;3.30;;;2.57;;
6376;SDS011;3221;48.858;10.128;2023-04-24T09:09:25;3.43;;;3.07;;
6376;SDS011;3221;48.858;10.128;2023-04-24T09:11:52;3.63;;;3.13;;
6376;SDS011;3221;48.858;10.128;2023-04-24T09:14:23;3.87;;;2.93;;
6376;SDS011;3221;48.858;10.128;2023-04-24T09:16:50;7.60;;;3.90;;
6376;SDS011;3221;48.858;10.128;2023-04-24T09:19:17;6.33;;;4.10;;
6376;SDS011;3221;48.858;10.128;2023-04-24T09:21:47;6.27;;;4.07;;
6376;SDS011;3221;48.858;10.128;2023-04-24T09:24:15;7.13;;;4.03;;
6376;SDS011;3221;48.858;10.128;2023-04-24T09:26:49;4.73;;;3.80;;
6376;SDS011;3221;48.858;10.128;2023-04-24T09:29:23;4.47;;;3.30;;
6376;SDS011;3221;48.858;10.128;2023-04-24T09:31:51;4.37;;;3.20;;
6376;SDS011;3221;48.858;10.128;2023-04-24T09:34:25;4.37;;;3.00;;
6376;SDS011;3221;48.858;10.128;2023-04-24T09:36:53;4.00;;;3.13;;
6376;SDS011;3221;48.858;10.128;2023-04-24T09:39:21;2.83;;;2.53;;
6376;SDS011;3221;48.858;10.128;2023-04-24T09:44:17;3.10;;;2.87;;
6376;SDS011;3221;48.858;10.128;2023-04-24T09:46:51;4.17;;;3.07;;
6376;SDS011;3221;48.858;10.128;2023-04-24T09:49:23;4.13;;;3.30;;
6376;SDS011;3221;48.858;10.128;2023-04-24T09:51:50;3.73;;;3.40;;
6376;SDS011;3221;48.858;10.128;2023-04-24T09:54:19;3.63;;;3.30;;
6376;SDS011;3221;48.858;10.128;2023-04-24T09:56:48;4.40;;;2.97;;
6376;SDS011;3221;48.858;10.128;2023-04-24T09:59:17;2.90;;;2.60;;
6376;SDS011;3221;48.858;10.128;2023-04-24T10:01:46;4.90;;;2.60;;
6376;SDS011;3221;48.858;10.128;2023-04-24T10:04:19;3.23;;;2.90;;
6376;SDS011;3221;48.858;10.128;2023-04-24T10:06:47;3.47;;;2.67;;
6376;SDS011;3221;48.858;10.128;2023-04-24T10:09:16;2.97;;;2.50;;
6376;SDS011;3221;48.858;10.128;2023-04-24T10:11:45;2.70;;;2.43;;
6376;SDS011;3221;48.858;10.128;2023-04-24T10:14:14;2.80;;;2.50;;
6376;SDS011;3221;48.858;10.128;2023-04-24T10:16:43;3.07;;;2.77;;
6376;SDS011;3221;48.858;10.128;2023-04-24T10:19:10;3.93;;;2.40;;
6376;SDS011;3221;48.858;10.128;2023-04-24T10:21:40;3.60;;;2.20;;
6376;SDS011;3221;48.858;10.128;2023-04-24T10:24:17;3.93;;;2.53;;
6376;SDS011;3221;48.858;10.128;2023-04-24T10:26:47;2.50;;;2.30;;
6376;SDS011;3221;48.858;10.128;2023-04-24T10:29:16;4.90;;;2.40;;
6376;SDS011;3221;48.858;10.128;2023-04-24T10:31:45;3.83;;;2.47;;
6376;SDS011;3221;48.858;10.128;2023-04-24T10:34:14;2.67;;;2.47;;
6376;SDS011;3221;48.858;10.128;2023-04-24T10:37:02;2.57;;;2.37;;
6376;SDS011;3221;48.858;10.128;2023-04-24T10:39:29;2.67;;;2.47;;
6376;SDS011;3221;48.858;10.128;2023-04-24T10:41:59;2.80;;;2.60;;
6376;SDS011;3221;48.858;10.128;2023-04-24T10:44:35;3.87;;;2.40;;
6376;SDS011;3221;48.858;10.128;2023-04-24T10:47:02;4.67;;;2.40;;
6376;SDS011;3221;48.858;10.128;2023-04-24T10:49:30;4.43;;;2.43;;
6376;SDS011;3221;48.858;10.128;2023-04-24T10:52:02;3.67;;;2.63;;
6376;SDS011;3221;48.858;10.128;2023-04-24T10:54:44;6.80;;;2.87;;
6376;SDS011;3221;48.858;10.128;2023-04-24T10:59:49;3.87;;;2.90;;
6376;SDS011;3221;48.858;10.128;2023-04-24T11:02:18;3.93;;;2.80;;
6376;SDS011;3221;48.858;10.128;2023-04-24T11:05:05;3.60;;;2.60;;
6376;SDS011;3221;48.858;10.128;2023-04-24T11:10:38;4.17;;;2.57;;
6376;SDS011;3221;48.858;10.128;2023-04-24T11:13:16;3.63;;;2.30;;
6376;SDS011;3221;48.858;10.128;2023-04-24T11:15:43;3.70;;;2.60;;
6376;SDS011;3221;48.858;10.128;2023-04-24T11:18:14;2.73;;;2.20;;
6376;SDS011;3221;48.858;10.128;2023-04-24T11:20:43;2.60;;;2.20;;
6376;SDS011;3221;48.858;10.128;2023-04-24T11:23:11;2.50;;;2.17;;
6376;SDS011;3221;48.858;10.128;2023-04-24T11:25:39;2.60;;;2.40;;
6376;SDS011;3221;48.858;10.128;2023-04-24T11:28:07;7.43;;;3.10;;
6376;SDS011;3221;48.858;10.128;2023-04-24T11:30:42;3.57;;;2.47;;
6376;SDS011;3221;48.858;10.128;2023-04-24T11:33:09;3.20;;;2.70;;
6376;SDS011;3221;48.858;10.128;2023-04-24T11:35:39;4.30;;;2.80;;
6376;SDS011;3221;48.858;10.128;2023-04-24T11:38:06;3.27;;;2.77;;
6376;SDS011;3221;48.858;10.128;2023-04-24T11:40:49;3.50;;;2.80;;
6376;SDS011;3221;48.858;10.128;2023-04-24T11:43:17;3.33;;;2.60;;
6376;SDS011;3221;48.858;10.128;2023-04-24T11:45:49;2.50;;;2.30;;
6376;SDS011;3221;48.858;10.128;2023-04-24T11:48:19;2.27;;;2.07;;
6376;SDS011;3221;48.858;10.128;2023-04-24T11:50:49;2.70;;;2.20;;
6376;SDS011;3221;48.858;10.128;2023-04-24T11:53:18;2.63;;;2.37;;
6376;SDS011;3221;48.858;10.128;2023-04-24T11:55:47;2.40;;;2.10;;
6376;SDS011;3221;48.858;10.128;2023-04-24T11:58:14;2.10;;;1.90;;
6376;SDS011;3221;48.858;10.128;2023-04-24T12:00:41;2.30;;;2.10;;
6376;SDS011;3221;48.858;10.128;2023-04-24T12:03:09;2.43;;;2.17;;
6376;SDS011;3221;48.858;10.128;2023-04-24T12:05:38;3.17;;;2.00;;
6376;SDS011;3221;48.858;10.128;2023-04-24T12:08:06;2.20;;;1.93;;
6376;SDS011;3221;48.858;10.128;2023-04-24T12:10:33;2.40;;;2.20;;
6376;SDS011;3221;48.858;10.128;2023-04-24T12:13:01;3.47;;;2.23;;
6376;SDS011;3221;48.858;10.128;2023-04-24T12:15:28;4.07;;;2.23;;
6376;SDS011;3221;48.858;10.128;2023-04-24T12:17:55;2.97;;;2.40;;
6376;SDS011;3221;48.858;10.128;2023-04-24T12:20:24;2.20;;;2.03;;
6376;SDS011;3221;48.858;10.128;2023-04-24T12:22:56;2.47;;;2.27;;
6376;SDS011;3221;48.858;10.128;2023-04-24T12:25:25;3.10;;;2.40;;
6376;SDS011;3221;48.858;10.128;2023-04-24T12:30:30;2.47;;;2.27;;
6376;SDS011;3221;48.858;10.128;2023-04-24T12:32:58;3.00;;;2.70;;
6376;SDS011;3221;48.858;10.128;2023-04-24T12:35:27;2.80;;;2.60;;
6376;SDS011;3221;48.858;10.128;2023-04-24T12:37:55;2.60;;;2.40;;
6376;SDS011;3221;48.858;10.128;2023-04-24T12:40:22;3.50;;;2.47;;
6376;SDS011;3221;48.858;10.128;2023-04-24T12:42:51;2.33;;;2.13;;
6376;SDS011;3221;48.858;10.128;2023-04-24T12:45:20;2.20;;;2.10;;
6376;SDS011;3221;48.858;10.128;2023-04-24T12:47:49;2.70;;;2.50;;
6376;SDS011;3221;48.858;10.128;2023-04-24T12:50:16;4.23;;;2.70;;
6376;SDS011;3221;48.858;10.128;2023-04-24T12:52:44;4.57;;;2.83;;
6376;SDS011;3221;48.858;10.128;2023-04-24T12:55:11;3.27;;;2.50;;
6376;SDS011;3221;48.858;10.128;2023-04-24T12:57:39;4.33;;;2.60;;
6376;SDS011;3221;48.858;10.128;2023-04-24T13:00:07;3.67;;;2.60;;
6376;SDS011;3221;48.858;10.128;2023-04-24T13:02:34;2.97;;;2.67;;
6376;SDS011;3221;48.858;10.128;2023-04-24T13:05:02;3.50;;;2.77;;
6376;SDS011;3221;48.858;10.128;2023-04-24T13:07:29;2.90;;;2.60;;
6376;SDS011;3221;48.858;10.128;2023-04-24T13:09:56;2.77;;;2.43;;
6376;SDS011;3221;48.858;10.128;2023-04-24T13:12:24;2.70;;;2.50;;
6376;SDS011;3221;48.858;10.128;2023-04-24T13:14:52;5.53;;;3.40;;
6376;SDS011;3221;48.858;10.128;2023-04-24T13:17:19;3.73;;;3.00;;
6376;SDS011;3221;48.858;10.128;2023-04-24T13:19:49;3.60;;;3.20;;
6376;SDS011;3221;48.858;10.128;2023-04-24T13:22:17;4.27;;;3.00;;
6376;SDS011;3221;48.858;10.128;2023-04-24T13:24:47;2.90;;;2.70;;
6376;SDS011;3221;48.858;10.128;2023-04-24T13:27:17;3.97;;;3.13;;
6376;SDS011;3221;48.858;10.128;2023-04-24T13:29:44;3.87;;;3.47;;
6376;SDS011;3221;48.858;10.128;2023-04-24T13:32:12;3.90;;;3.17;;
6376;SDS011;3221;48.858;10.128;2023-04-24T13:34:39;3.33;;;3.03;;
6376;SDS011;3221;48.858;10.128;2023-04-24T13:37:06;4.10;;;2.60;;
6376;SDS011;3221;48.858;10.128;2023-04-24T13:39:34;3.90;;;2.93;;
6376;SDS011;3221;48.858;10.128;2023-04-24T13:42:02;2.60;;;2.40;;
6376;SDS011;3221;48.858;10.128;2023-04-24T13:44:30;3.40;;;2.57;;
6376;SDS011;3221;48.858;10.128;2023-04-24T13:46:57;3.60;;;2.47;;
6376;SDS011;3221;48.858;10.128;2023-04-24T13:49:25;3.40;;;2.40;;
6376;SDS011;3221;48.858;10.128;2023-04-24T13:51:53;3.50;;;2.53;;
6376;SDS011;3221;48.858;10.128;2023-04-24T13:54:21;3.63;;;2.80;;
6376;SDS011;3221;48.858;10.128;2023-04-24T13:56:49;5.27;;;3.80;;
6376;SDS011;3221;48.858;10.128;2023-04-24T13:59:19;5.93;;;4.23;;
6376;SDS011;3221;48.858;10.128;2023-04-24T14:01:46;5.40;;;3.70;;
6376;SDS011;3221;48.858;10.128;2023-04-24T14:04:14;4.07;;;3.27;;
6376;SDS011;3221;48.858;10.128;2023-04-24T14:06:41;4.90;;;3.57;;
6376;SDS011;3221;48.858;10.128;2023-04-24T14:09:09;5.77;;;3.63;;
6376;SDS011;3221;48.858;10.128;2023-04-24T14:11:36;4.33;;;3.30;;
6376;SDS011;3221;48.858;10.128;2023-04-24T14:14:03;5.33;;;4.17;;
6376;SDS011;3221;48.858;10.128;2023-04-24T14:16:30;3.87;;;3.47;;
6376;SDS011;3221;48.858;10.128;2023-04-24T14:18:57;4.90;;;3.77;;
6376;SDS011;3221;48.858;10.128;2023-04-24T14:21:25;4.33;;;3.93;;
6376;SDS011;3221;48.858;10.128;2023-04-24T14:23:51;5.23;;;4.40;;
6376;SDS011;3221;48.858;10.128;2023-04-24T14:26:19;4.33;;;3.93;;
6376;SDS011;3221;48.858;10.128;2023-04-24T14:28:46;5.37;;;4.20;;
6376;SDS011;3221;48.858;10.128;2023-04-24T14:31:13;4.97;;;3.50;;
6376;SDS011;3221;48.858;10.128;2023-04-24T14:33:40;4.07;;;3.53;;
6376;SDS011;3221;48.858;10.128;2023-04-24T14:36:06;4.70;;;3.20;;
6376;SDS011;3221;48.858;10.128;2023-04-24T14:38:33;4.80;;;3.53;;
6376;SDS011;3221;48.858;10.128;2023-04-24T14:41:01;4.87;;;3.40;;
6376;SDS011;3221;48.858;10.128;2023-04-24T14:43:38;5.60;;;3.30;;
6376;SDS011;3221;48.858;10.128;2023-04-24T14:46:05;5.67;;;3.87;;
6376;SDS011;3221;48.858;10.128;2023-04-24T14:48:32;5.53;;;3.70;;
6376;SDS011;3221;48.858;10.128;2023-04-24T14:50:59;3.00;;;2.70;;
6376;SDS011;3221;48.858;10.128;2023-04-24T14:53:26;3.93;;;2.70;;
6376;SDS011;3221;48.858;10.128;2023-04-24T14:55:53;3.20;;;2.47;;
6376;SDS011;3221;48.858;10.128;2023-04-24T14:58:20;2.40;;;2.20;;
6376;SDS011;3221;48.858;10.128;2023-04-24T15:00:47;3.90;;;2.27;;
6376;SDS011;3221;48.858;10.128;2023-04-24T15:03:18;2.60;;;2.40;;
6376;SDS011;3221;48.858;10.128;2023-04-24T15:05:47;2.63;;;2.40;;
6376;SDS011;3221;48.858;10.128;2023-04-24T15:08:14;2.50;;;2.30;;
6376;SDS011;3221;48.858;10.128;2023-04-24T15:10:41;2.83;;;2.60;;
6376;SDS011;3221;48.858;10.128;2023-04-24T15:13:08;2.60;;;2.40;;
6376;SDS011;3221;48.858;10.128;2023-04-24T15:15:35;3.30;;;2.87;;
6376;SDS011;3221;48.858;10.128;2023-04-24T15:18:04;3.57;;;2.40;;
6376;SDS011;3221;48.858;10.128;2023-04-24T15:20:31;2.70;;;2.50;;